Terminal Aerodrome Forecast
Issued by NWS

Home | Current Version | Previous Version | Text Only | Print | Product List | Glossary On
Versions: 1 2 3 4 5 6 7 8 9 10 11 12 13 14 15 16 17 18 19 20 21 22 23 24 25 26 27 28 29 30 31 32 33 34 35 36 37 38 39 40
000
FTUS44 KHGX 311856 AAB
TAFSGR
TAF AMD
KSGR 311856Z 3119/0118 20005KT P6SM VCTS SCT040CB BKN140 BKN250
      TEMPO 3119/3120 5SM TSRA BKN035CB
     FM312200 18008KT P6SM VCTS BKN040CB
      TEMPO 0100/0104 VRB10G25KT 4SM TSRA BKN035CB
     FM010700 VRB03KT P6SM VCSH SCT015 BKN040
     FM011000 23003KT P6SM VCSH BKN050
     FM011400 27005KT P6SM SCT015 BKN040=

USA.gov is the U.S. government's official web portal to all federal, state and local government web resources and services.